»·PEaware :: N3455T KAMA-KASE

N3455T :: KAMA-KASE

FLIGHT INFORMATION

Flight Status: Arrived
Operator: Privately registered:
United States
More flights under this callsign
Pilot: Anonymous 19359 (19359)
Aircraft: SOCATA TBM-900
(TBM9)
More flights by this aircraft type
Origin: KAMA Amarillo Intl
United States
Destination: KASE Aspen-Pitkin Co/Sardy
United States
More flights between these airports :: More routes between these airports
Route: +PNH CIM ALS J206 DBL
File this flight plan on PilotEdge
Remarks:
Altitude:
(Current/Filed)
28,000ft
Speed:
(Current/Filed)
175kts
Departed: 05-Nov-19 11:14 AM
Arrived: 05-Nov-19 12:12 PM
Distance/Time
Traveled:
344nm/0:58
Distance/Time
To Go:
Arrived

Flight Plot

Page will automatically refresh every two minutes.

Flight plan parsing failed; only flown route is shown


Map Options




Map Legend


Flown Route
Filed Route
Departure Airport
Arrival Airport
Navaid (VOR, NDB)
Fix

Horizontal Profiles

Position Reports

Time Latitude Longitude Heading Altitude Ground
Speed
05-Nov-19 10:48 35.222181 -101.702781 316 3609ft 0kts
05-Nov-19 10:49 35.222181 -101.702781 316 3609ft 0kts
05-Nov-19 10:50 35.222181 -101.702781 316 3609ft 0kts
05-Nov-19 10:51 35.222181 -101.702781 316 3609ft 0kts
05-Nov-19 10:52 35.222181 -101.702781 316 3609ft 0kts
05-Nov-19 10:53 35.222181 -101.702781 316 3609ft 0kts
05-Nov-19 10:54 35.222181 -101.702781 316 3609ft 0kts
05-Nov-19 10:55 35.222181 -101.702781 316 3609ft 0kts
05-Nov-19 10:56 35.222181 -101.702781 316 3609ft 0kts
05-Nov-19 10:57 35.222181 -101.702781 316 3609ft 0kts
05-Nov-19 10:58 35.222181 -101.702781 316 3609ft 0kts
05-Nov-19 10:59 35.222181 -101.702781 316 3609ft 0kts
05-Nov-19 11:00 35.222181 -101.702781 316 3609ft 0kts
05-Nov-19 11:01 35.222181 -101.702781 316 3609ft 0kts
05-Nov-19 11:02 35.222181 -101.702781 316 3609ft 0kts
05-Nov-19 11:03 35.222181 -101.702781 316 3609ft 0kts
05-Nov-19 11:04 35.222181 -101.702781 316 3609ft 0kts
05-Nov-19 11:05 35.222181 -101.702781 316 3609ft 0kts
05-Nov-19 11:06 35.222181 -101.702781 316 3609ft 0kts
05-Nov-19 11:07 35.222273 -101.703491 277 3609ft 4kts
05-Nov-19 11:08 35.224080 -101.703648 47 3609ft 12kts
05-Nov-19 11:09 35.226655 -101.700355 46 3609ft 14kts
05-Nov-19 11:10 35.229002 -101.698312 327 3609ft 7kts
05-Nov-19 11:11 35.229869 -101.699286 317 3609ft 0kts
05-Nov-19 11:12 35.230041 -101.699486 314 3609ft 5kts
05-Nov-19 11:13 35.220919 -101.712263 221 3792ft 131kts
05-Nov-19 11:14 35.191907 -101.749604 224 5514ft 164kts
05-Nov-19 11:15 35.162540 -101.787313 224 7998ft 147kts
05-Nov-19 11:16 35.142797 -101.825840 289 10401ft 153kts
05-Nov-19 11:18 35.162999 -101.870454 293 12608ft 150kts
05-Nov-19 11:19 35.183890 -101.915699 294 14395ft 156kts
05-Nov-19 11:20 35.205692 -101.962932 295 16344ft 162kts
05-Nov-19 11:21 35.228020 -102.011368 296 18348ft 168kts
05-Nov-19 11:22 35.251164 -102.061635 297 20311ft 173kts
05-Nov-19 11:23 35.275193 -102.113917 297 22285ft 180kts
05-Nov-19 11:24 35.300061 -102.168093 298 24335ft 186kts
05-Nov-19 11:25 35.325998 -102.224700 298 26371ft 194kts
05-Nov-19 11:26 35.353018 -102.283760 299 27971ft 212kts
05-Nov-19 11:27 35.386142 -102.356256 299 27973ft 268kts
05-Nov-19 11:28 35.424375 -102.440205 299 27962ft 291kts
05-Nov-19 11:29 35.471171 -102.523131 305 27953ft 299kts
05-Nov-19 11:30 35.549275 -102.654004 305 27941ft 301kts
05-Nov-19 11:31 35.745857 -102.985449 305 27937ft 298kts
05-Nov-19 11:32 35.942747 -103.320643 304 27924ft 303kts
05-Nov-19 11:33 36.141386 -103.662130 304 27918ft 306kts
05-Nov-19 11:34 36.339856 -104.006756 304 27911ft 308kts
05-Nov-19 11:34 36.505154 -104.296448 304 27917ft 308kts
05-Nov-19 11:36 36.735716 -104.704687 304 27917ft 309kts
05-Nov-19 11:37 36.932364 -105.056701 303 27967ft 308kts
05-Nov-19 11:37 37.095460 -105.351722 303 28023ft 309kts
05-Nov-19 11:39 37.322873 -105.767168 303 27997ft 311kts
05-Nov-19 11:39 37.430847 -105.911948 332 27855ft 314kts
05-Nov-19 11:40 37.502496 -105.982841 318 26381ft 341kts
05-Nov-19 11:42 37.586296 -106.074504 318 24916ft 338kts
05-Nov-19 11:42 37.645442 -106.139441 317 24233ft 334kts
05-Nov-19 11:43 37.714116 -106.215016 317 23993ft 320kts
05-Nov-19 11:44 37.780112 -106.287828 317 23995ft 313kts
05-Nov-19 11:45 37.845394 -106.360034 317 24009ft 310kts
05-Nov-19 11:46 37.910539 -106.432266 317 24006ft 310kts
05-Nov-19 11:47 37.975436 -106.504399 317 23997ft 310kts
05-Nov-19 11:48 38.040382 -106.576762 317 23999ft 310kts
05-Nov-19 11:49 38.105109 -106.649061 317 24018ft 309kts
05-Nov-19 11:50 38.169738 -106.721425 317 24049ft 309kts
05-Nov-19 11:51 38.233980 -106.793536 317 24033ft 308kts
05-Nov-19 11:52 38.298216 -106.865816 317 24023ft 308kts
05-Nov-19 11:53 38.362379 -106.938192 317 24023ft 307kts
05-Nov-19 11:54 38.426506 -107.010708 317 23812ft 314kts
05-Nov-19 11:55 38.510105 -107.031472 5 22778ft 330kts
05-Nov-19 11:56 38.601184 -107.018082 5 21523ft 334kts
05-Nov-19 11:57 38.693681 -107.004611 5 20053ft 333kts
05-Nov-19 11:58 38.781685 -106.991746 5 20019ft 307kts
05-Nov-19 11:59 38.865575 -106.979464 5 20013ft 300kts
05-Nov-19 12:00 38.948599 -106.967263 4 20003ft 300kts
05-Nov-19 12:01 39.030050 -106.955284 3 19633ft 287kts
05-Nov-19 12:02 39.099241 -106.910351 42 18090ft 293kts
05-Nov-19 12:03 39.157270 -106.840021 42 16378ft 268kts
05-Nov-19 12:04 39.216602 -106.805001 344 14289ft 223kts
05-Nov-19 12:05 39.273859 -106.825128 338 12267ft 207kts
05-Nov-19 12:06 39.319496 -106.863719 300 10271ft 194kts
05-Nov-19 12:07 39.320203 -106.919418 223 9483ft 157kts
05-Nov-19 12:08 39.290220 -106.907006 141 8432ft 118kts
05-Nov-19 12:09 39.261758 -106.887013 159 8574ft 112kts
05-Nov-19 12:10 39.235537 -106.874671 159 7931ft 93kts
05-Nov-19 12:11 39.223372 -106.868137 68 7837ft 2kts
05-Nov-19 12:12 39.222723 -106.866540 121 7837ft 7kts
05-Nov-19 12:13 39.222344 -106.866853 264 7837ft 0kts
05-Nov-19 12:14 39.222344 -106.866853 264 7837ft 0kts
05-Nov-19 12:15 39.222344 -106.866853 264 7837ft 0kts
05-Nov-19 12:16 39.222344 -106.866853 264 7837ft 0kts
05-Nov-19 12:17 39.222344 -106.866853 264 7837ft 0kts
05-Nov-19 12:18 39.222344 -106.866853 264 7837ft 0kts
05-Nov-19 12:19 39.222344 -106.866853 264 7837ft 0kts
05-Nov-19 12:20 39.222344 -106.866853 264 7837ft 0kts
05-Nov-19 12:21 39.222344 -106.866853 264 7837ft 0kts
05-Nov-19 12:22 39.222344 -106.866853 264 7837ft 0kts
05-Nov-19 12:23 39.222344 -106.866853 264 7837ft 0kts
05-Nov-19 12:24 39.222344 -106.866853 264 7837ft 0kts
05-Nov-19 12:25 39.222344 -106.866853 264 7837ft 0kts
05-Nov-19 12:26 39.222344 -106.866853 264 7837ft 0kts

Navigation Log

Ident Type
Flight plan parsing failed, navigation log unavailable